Time;durP1;ratioP1;P1;durP2;ratioP2;P2;SDS_P1;SDS_P2;PMS_P1;PMS_P2;Temp;Humidity;BMP_temperature;BMP_pressure;BME280_temperature;BME280_humidity;BME280_pressure;Samples;Min_cycle;Max_cycle;Signal;HPM_P1;HPM_P2
2022/03/24 00:01:39;;;;;;;26.73;15.27;;;2.10;93.90;;;;;;4974290;28;20030;-80
2022/03/24 00:04:05;;;;;;;28.27;14.03;;;2.20;93.90;;;;;;4991638;28;20364;-80
2022/03/24 00:06:31;;;;;;;30.50;14.53;;;2.20;94.10;;;;;;4991412;28;20085;-80
2022/03/24 00:08:56;;;;;;;29.07;14.37;;;2.20;93.20;;;;;;5016296;23;20569;-80
2022/03/24 00:11:22;;;;;;;28.50;13.80;;;2.30;93.00;;;;;;5010322;28;20026;-78
2022/03/24 00:13:48;;;;;;;26.77;14.87;;;2.30;93.20;;;;;;5010675;28;20033;-78
2022/03/24 00:16:15;;;;;;;31.03;15.83;;;2.30;93.10;;;;;;4992590;28;20072;-78
2022/03/24 00:18:41;;;;;;;31.63;13.67;;;2.20;93.10;;;;;;5008357;28;20029;-78
2022/03/24 00:21:08;;;;;;;27.90;15.73;;;2.20;93.40;;;;;;5010717;28;20033;-78
2022/03/24 00:23:34;;;;;;;36.17;17.40;;;2.10;93.20;;;;;;5009668;28;20069;-78
2022/03/24 00:26:00;;;;;;;35.30;14.77;;;2.10;93.60;;;;;;5009887;28;20018;-79
2022/03/24 00:28:26;;;;;;;29.87;15.57;;;2.00;94.50;;;;;;5009312;28;20382;-78
2022/03/24 00:30:52;;;;;;;29.57;14.33;;;2.00;94.40;;;;;;5009399;28;20025;-79
2022/03/24 00:33:18;;;;;;;30.50;13.27;;;2.20;93.30;;;;;;5009997;28;20100;-78
2022/03/24 00:35:44;;;;;;;27.87;15.03;;;2.20;93.00;;;;;;5009487;28;21613;-78
2022/03/24 00:38:09;;;;;;;28.10;15.20;;;2.30;92.70;;;;;;5009696;28;20026;-78
2022/03/24 00:40:35;;;;;;;30.30;14.87;;;2.30;92.50;;;;;;5008103;28;20387;-78
2022/03/24 00:43:02;;;;;;;31.57;15.67;;;2.30;92.70;;;;;;5010610;28;20022;-78
2022/03/24 00:45:27;;;;;;;37.93;17.13;;;2.20;92.40;;;;;;5010677;28;20401;-78
2022/03/24 00:47:53;;;;;;;32.30;15.30;;;2.20;93.20;;;;;;5010632;28;20022;-78
2022/03/24 00:50:19;;;;;;;34.37;15.93;;;2.20;93.00;;;;;;5010440;28;20540;-78
2022/03/24 00:52:45;;;;;;;36.70;16.50;;;2.00;93.00;;;;;;5010441;28;20040;-78
2022/03/24 00:55:15;;;;;;;41.40;17.30;;;1.90;93.40;;;;;;5010615;28;20371;-78
2022/03/24 00:57:42;;;;;;;31.97;15.77;;;1.80;93.90;;;;;;5010731;28;20026;-78
2022/03/24 01:00:10;;;;;;;33.57;15.93;;;1.90;93.80;;;;;;5010365;28;20041;-78
2022/03/24 01:02:39;;;;;;;33.13;17.33;;;2.00;93.30;;;;;;5005308;28;20542;-78
2022/03/24 01:05:07;;;;;;;34.10;15.90;;;2.00;94.00;;;;;;5008586;28;20057;-78
2022/03/24 01:07:33;;;;;;;34.87;15.67;;;2.10;93.90;;;;;;5008844;28;20057;-79
2022/03/24 01:09:59;;;;;;;29.93;15.20;;;2.20;93.80;;;;;;5030569;23;20045;-80
2022/03/24 01:12:24;;;;;;;31.80;15.17;;;2.20;92.70;;;;;;4990912;28;20512;-80
2022/03/24 01:14:50;;;;;;;34.87;14.67;;;2.20;92.40;;;;;;5008768;28;20037;-80
2022/03/24 01:17:17;;;;;;;26.07;14.93;;;2.10;92.60;;;;;;5008835;28;20026;-80
2022/03/24 01:19:44;;;;;;;33.83;17.23;;;2.10;92.60;;;;;;5009678;28;20018;-80
2022/03/24 01:22:10;;;;;;;33.07;14.90;;;2.00;93.00;;;;;;5013696;28;20488;-81
2022/03/24 01:24:38;;;;;;;38.43;16.17;;;2.00;93.30;;;;;;5013587;28;20033;-80
2022/03/24 01:27:05;;;;;;;35.60;16.30;;;1.90;93.00;;;;;;5013959;28;20466;-80
2022/03/24 01:29:31;;;;;;;31.73;18.17;;;1.80;93.60;;;;;;5013811;28;20025;-80
2022/03/24 01:31:57;;;;;;;32.80;16.67;;;1.60;93.40;;;;;;5013681;28;20069;-81
2022/03/24 01:34:24;;;;;;;34.80;17.33;;;1.40;93.70;;;;;;5014237;28;20125;-80
2022/03/24 01:36:50;;;;;;;35.53;16.97;;;1.40;94.70;;;;;;5013721;28;20501;-80
2022/03/24 01:39:15;;;;;;;38.13;17.77;;;1.40;94.90;;;;;;5013531;28;20034;-80
2022/03/24 01:41:44;;;;;;;37.83;17.77;;;1.30;95.20;;;;;;5014089;28;20081;-80
2022/03/24 01:44:12;;;;;;;43.07;18.87;;;1.20;95.10;;;;;;5012706;28;20416;-80
2022/03/24 01:46:39;;;;;;;42.07;18.50;;;1.10;95.60;;;;;;5012489;28;20027;-80
2022/03/24 01:49:05;;;;;;;34.97;16.90;;;1.10;96.30;;;;;;4994907;28;20053;-80
2022/03/24 01:51:30;;;;;;;34.70;15.30;;;1.20;96.40;;;;;;5012630;28;20129;-79
2022/03/24 01:53:59;;;;;;;34.10;16.40;;;1.30;95.60;;;;;;5011925;28;20382;-80
2022/03/24 01:56:26;;;;;;;28.10;14.33;;;1.30;95.00;;;;;;5012196;28;20030;-80
2022/03/24 01:58:55;;;;;;;28.50;13.77;;;1.20;95.10;;;;;;5012948;28;20108;-80
2022/03/24 02:01:36;;;;;;;34.80;17.50;;;1.20;95.30;;;;;;5012174;28;20128;-79
2022/03/24 02:04:06;;;;;;;42.80;18.50;;;1.20;96.00;;;;;;5012033;28;20109;-79
2022/03/24 02:06:33;;;;;;;31.00;15.03;;;1.30;95.90;;;;;;5011954;28;20272;-80
2022/03/24 02:09:03;;;;;;;40.20;15.47;;;1.40;95.90;;;;;;5031207;23;20065;-80
2022/03/24 02:11:35;;;;;;;28.93;14.67;;;1.40;95.10;;;;;;5006570;28;20042;-79
2022/03/24 02:14:04;;;;;;;35.13;16.37;;;1.30;94.80;;;;;;5013055;28;20079;-80
2022/03/24 02:16:34;;;;;;;33.20;16.10;;;1.30;95.00;;;;;;4995275;28;20474;-80
2022/03/24 02:19:09;;;;;;;32.00;15.73;;;1.30;95.30;;;;;;5012757;28;20505;-81
2022/03/24 02:21:35;;;;;;;30.30;16.07;;;1.20;94.70;;;;;;4990008;28;20030;-81
2022/03/24 02:24:01;;;;;;;41.70;16.10;;;1.10;94.80;;;;;;5012836;28;20017;-81
2022/03/24 02:26:27;;;;;;;40.17;16.77;;;1.10;95.20;;;;;;5013040;28;20604;-81
2022/03/24 02:28:55;;;;;;;36.10;17.00;;;0.90;95.00;;;;;;5012896;28;20026;-80
2022/03/24 02:31:22;;;;;;;35.70;16.93;;;1.00;96.30;;;;;;5012341;28;20152;-80
2022/03/24 02:33:48;;;;;;;31.80;16.63;;;1.10;96.20;;;;;;5012742;28;20014;-81
2022/03/24 02:36:14;;;;;;;32.63;16.10;;;1.10;95.40;;;;;;5012871;28;20026;-81
2022/03/24 02:38:40;;;;;;;29.87;15.90;;;1.10;95.70;;;;;;4994579;28;20026;-81
2022/03/24 02:41:06;;;;;;;33.60;15.97;;;1.10;96.20;;;;;;5012392;28;20018;-81
2022/03/24 02:43:32;;;;;;;31.57;15.60;;;1.00;95.60;;;;;;5012556;28;20034;-81
2022/03/24 02:45:58;;;;;;;31.90;15.57;;;0.90;95.30;;;;;;5012685;28;20089;-81
2022/03/24 02:48:23;;;;;;;31.67;15.57;;;0.90;96.30;;;;;;5012662;28;20494;-81
2022/03/24 02:50:49;;;;;;;30.30;17.10;;;0.90;96.40;;;;;;5012351;28;20088;-81
2022/03/24 02:53:16;;;;;;;33.60;15.77;;;0.90;96.10;;;;;;5012311;28;20066;-81
2022/03/24 02:55:41;;;;;;;30.27;15.60;;;0.80;96.00;;;;;;5012152;28;20028;-81
2022/03/24 02:58:07;;;;;;;30.40;17.73;;;0.90;96.30;;;;;;5012447;28;20113;-81
2022/03/24 03:00:33;;;;;;;37.23;17.37;;;1.00;96.10;;;;;;5012723;28;20072;-81
2022/03/24 03:02:59;;;;;;;36.23;16.07;;;0.80;95.80;;;;;;5012493;28;20018;-80
2022/03/24 03:08:00;;;;;;;32.50;15.37;;;1.10;96.20;;;;;;5041515;23;19984;-78
2022/03/24 03:10:26;;;;;;;31.50;15.63;;;1.00;95.30;;;;;;5011070;28;20037;-78
2022/03/24 03:12:52;;;;;;;35.50;17.17;;;1.00;95.90;;;;;;5012360;28;20042;-78
2022/03/24 03:15:17;;;;;;;41.13;17.23;;;1.10;95.80;;;;;;5012177;28;20392;-78
2022/03/24 03:17:43;;;;;;;40.47;18.80;;;1.10;95.70;;;;;;5011973;28;20030;-78
2022/03/24 03:20:10;;;;;;;39.43;18.83;;;1.00;95.60;;;;;;5012488;28;20017;-77
2022/03/24 03:22:36;;;;;;;41.73;18.73;;;1.10;95.80;;;;;;5011864;28;20025;-77
2022/03/24 03:25:02;;;;;;;39.30;17.20;;;1.00;95.40;;;;;;5012246;28;20025;-78
2022/03/24 03:27:29;;;;;;;36.10;16.80;;;1.00;96.00;;;;;;5012111;28;20022;-78
2022/03/24 03:29:55;;;;;;;35.87;16.57;;;1.10;96.00;;;;;;5011007;28;20030;-78
2022/03/24 03:32:21;;;;;;;35.93;17.30;;;1.10;95.60;;;;;;5010774;28;20053;-78
2022/03/24 03:34:48;;;;;;;34.77;17.23;;;1.00;95.40;;;;;;5010480;28;20180;-77
2022/03/24 03:37:14;;;;;;;37.17;17.03;;;0.90;96.00;;;;;;5011072;28;20025;-77
2022/03/24 03:39:40;;;;;;;37.97;16.43;;;0.90;96.10;;;;;;5011349;28;20635;-78
2022/03/24 03:42:08;;;;;;;32.97;16.87;;;1.00;96.00;;;;;;5003394;28;20390;-77
2022/03/24 03:44:34;;;;;;;40.80;16.87;;;1.00;95.60;;;;;;5011011;28;20046;-78
2022/03/24 03:47:01;;;;;;;34.13;17.47;;;1.00;95.90;;;;;;5010453;28;20053;-78
2022/03/24 03:49:27;;;;;;;38.77;16.50;;;1.00;96.00;;;;;;5010268;28;20432;-77
2022/03/24 03:51:53;;;;;;;31.87;15.47;;;0.80;95.80;;;;;;5010483;28;20040;-78
2022/03/24 03:54:21;;;;;;;38.70;17.57;;;0.70;96.00;;;;;;5010087;28;20057;-78
2022/03/24 03:56:47;;;;;;;36.83;16.80;;;0.60;96.20;;;;;;5010042;28;20022;-78
2022/03/24 03:59:13;;;;;;;35.93;16.13;;;0.60;96.80;;;;;;5010652;28;20058;-78
2022/03/24 04:01:38;;;;;;;41.30;16.50;;;0.70;97.40;;;;;;5010186;28;20030;-78
2022/03/24 04:04:07;;;;;;;38.63;17.77;;;0.90;97.20;;;;;;5009820;28;20422;-77
2022/03/24 04:06:32;;;;;;;38.63;17.33;;;0.80;96.40;;;;;;5010239;28;20037;-77
2022/03/24 04:08:58;;;;;;;38.87;18.67;;;0.70;96.40;;;;;;5011085;28;20117;-77
2022/03/24 04:11:24;;;;;;;41.93;18.97;;;0.60;96.60;;;;;;5010730;28;20044;-78
2022/03/24 04:13:49;;;;;;;34.37;16.53;;;0.60;96.90;;;;;;5010872;28;20038;-77
2022/03/24 04:16:15;;;;;;;43.03;16.03;;;0.60;97.00;;;;;;5011085;28;20509;-78
2022/03/24 04:18:43;;;;;;;39.67;17.23;;;0.70;96.90;;;;;;5011168;28;20034;-78
2022/03/24 04:21:10;;;;;;;31.53;15.77;;;0.70;96.80;;;;;;4993290;28;20025;-77
2022/03/24 04:23:37;;;;;;;33.77;16.13;;;0.70;96.40;;;;;;5011325;28;20026;-77
2022/03/24 04:26:03;;;;;;;39.20;17.53;;;0.70;96.60;;;;;;5010811;28;20025;-77
2022/03/24 04:28:29;;;;;;;35.33;17.17;;;0.70;96.40;;;;;;5010725;28;20033;-77
2022/03/24 04:30:55;;;;;;;38.67;16.37;;;0.70;96.30;;;;;;5011417;28;20026;-77
2022/03/24 04:33:21;;;;;;;37.77;15.03;;;0.60;96.20;;;;;;5011124;28;20371;-78
2022/03/24 04:35:47;;;;;;;29.10;14.40;;;0.40;96.20;;;;;;5011157;28;20025;-78
2022/03/24 04:38:14;;;;;;;35.23;17.43;;;0.30;96.30;;;;;;5010680;28;20037;-77
2022/03/24 04:40:40;;;;;;;37.53;15.73;;;0.20;96.60;;;;;;5010921;28;20026;-77
2022/03/24 04:43:06;;;;;;;34.53;17.27;;;0.20;97.10;;;;;;5009913;28;20109;-77
2022/03/24 04:45:33;;;;;;;36.17;16.17;;;0.30;97.70;;;;;;5009842;28;20129;-77
2022/03/24 04:48:00;;;;;;;35.23;14.67;;;0.50;97.80;;;;;;5009211;28;20535;-77
2022/03/24 04:50:26;;;;;;;28.03;13.97;;;0.50;97.00;;;;;;5008983;28;20398;-77
2022/03/24 04:52:53;;;;;;;28.90;14.07;;;0.50;97.00;;;;;;5009816;28;20042;-77
2022/03/24 04:55:19;;;;;;;32.80;16.97;;;0.40;97.00;;;;;;5012994;28;20033;-77
2022/03/24 04:57:45;;;;;;;32.93;15.80;;;0.30;96.90;;;;;;5013337;28;20030;-77
2022/03/24 05:00:12;;;;;;;29.40;13.57;;;0.30;97.00;;;;;;5013453;28;20018;-77
2022/03/24 05:02:39;;;;;;;33.20;16.20;;;0.20;97.20;;;;;;5007884;28;20157;-78
2022/03/24 05:05:06;;;;;;;35.67;16.07;;;0.30;97.60;;;;;;5014122;28;20525;-77
2022/03/24 05:07:32;;;;;;;32.17;14.43;;;0.20;97.30;;;;;;5025940;22;20097;-79
2022/03/24 05:09:58;;;;;;;32.27;16.07;;;0.10;97.40;;;;;;5012654;28;20100;-80
2022/03/24 05:12:23;;;;;;;34.47;15.13;;;0.10;97.50;;;;;;5013721;28;20030;-80
2022/03/24 05:14:50;;;;;;;31.57;14.73;;;0.00;97.60;;;;;;5013961;28;20036;-79
2022/03/24 05:17:16;;;;;;;29.80;14.23;;;0.00;97.70;;;;;;5013932;28;20033;-80
2022/03/24 05:19:45;;;;;;;34.10;16.20;;;0.00;97.90;;;;;;5013540;28;20025;-80
2022/03/24 05:22:11;;;;;;;34.80;14.97;;;0.10;98.60;;;;;;5013602;28;20030;-79
2022/03/24 05:24:38;;;;;;;38.37;16.57;;;0.10;98.10;;;;;;5014166;28;20022;-79
2022/03/24 05:27:07;;;;;;;29.57;14.37;;;0.00;98.00;;;;;;5014010;28;20021;-80
2022/03/24 05:29:33;;;;;;;36.33;16.33;;;0.00;98.00;;;;;;5013900;28;20060;-80
2022/03/24 05:31:59;;;;;;;34.03;17.37;;;-0.10;98.00;;;;;;5014008;28;20041;-80
2022/03/24 05:34:24;;;;;;;37.30;17.83;;;0.00;98.30;;;;;;5014186;28;20430;-80
2022/03/24 05:36:51;;;;;;;42.40;18.47;;;0.10;97.80;;;;;;5013673;28;20025;-79
2022/03/24 05:39:17;;;;;;;46.10;20.10;;;0.10;97.40;;;;;;5013431;28;20018;-80
2022/03/24 05:41:43;;;;;;;45.50;17.47;;;0.10;97.30;;;;;;5013949;28;20022;-79
2022/03/24 05:44:09;;;;;;;42.97;19.10;;;0.10;97.80;;;;;;5013153;28;20021;-79
2022/03/24 05:46:38;;;;;;;39.77;19.67;;;0.20;98.50;;;;;;5013175;28;20532;-79
2022/03/24 05:49:06;;;;;;;42.37;19.20;;;0.10;97.20;;;;;;5013687;28;20101;-80
2022/03/24 05:51:32;;;;;;;46.07;18.70;;;0.10;97.10;;;;;;5012898;28;20085;-80
2022/03/24 05:53:58;;;;;;;45.30;19.77;;;0.10;97.00;;;;;;5013742;28;20036;-80
2022/03/24 05:56:24;;;;;;;44.27;19.77;;;0.10;97.00;;;;;;5013762;28;20014;-80
2022/03/24 05:58:50;;;;;;;48.77;20.40;;;0.10;97.10;;;;;;5013632;28;20021;-80
2022/03/24 06:01:16;;;;;;;49.00;18.77;;;0.10;97.50;;;;;;5013309;28;20109;-80
2022/03/24 06:03:45;;;;;;;43.83;18.50;;;0.10;97.60;;;;;;5013350;28;20026;-79
2022/03/24 06:06:12;;;;;;;47.37;19.53;;;0.20;97.60;;;;;;5017100;22;21220;-82
2022/03/24 06:08:42;;;;;;;40.63;18.77;;;0.30;97.80;;;;;;5013531;28;20034;-83
2022/03/24 06:11:13;;;;;;;46.90;20.20;;;0.40;97.70;;;;;;5012741;28;20105;-83
2022/03/24 06:13:40;;;;;;;46.23;19.23;;;0.40;97.60;;;;;;5013592;28;20603;-83
2022/03/24 06:16:06;;;;;;;38.30;18.20;;;0.50;97.40;;;;;;5013232;28;20022;-83
2022/03/24 06:18:32;;;;;;;39.07;17.07;;;0.40;97.20;;;;;;5013013;28;20028;-83
2022/03/24 06:21:02;;;;;;;39.90;18.67;;;0.40;97.40;;;;;;5012662;28;20029;-83
2022/03/24 06:23:28;;;;;;;46.53;19.30;;;0.50;97.70;;;;;;5006918;28;20022;-83
2022/03/24 06:25:53;;;;;;;43.53;20.20;;;0.50;97.30;;;;;;5013116;28;20033;-83
2022/03/24 06:28:19;;;;;;;45.23;21.03;;;0.50;97.00;;;;;;5012987;28;20056;-83
2022/03/24 06:30:45;;;;;;;44.10;21.07;;;0.50;97.00;;;;;;4995438;28;20049;-84
2022/03/24 06:33:11;;;;;;;48.80;20.30;;;0.60;96.90;;;;;;5012145;28;20037;-82
2022/03/24 06:35:37;;;;;;;42.10;19.70;;;0.60;97.10;;;;;;5012634;28;20018;-83
2022/03/24 06:38:03;;;;;;;47.53;19.60;;;0.70;97.10;;;;;;5012886;28;20176;-83
2022/03/24 06:40:29;;;;;;;40.23;18.50;;;0.80;97.20;;;;;;5012709;28;20017;-81
2022/03/24 06:42:55;;;;;;;42.50;19.13;;;0.90;97.00;;;;;;5012744;28;20022;-81
2022/03/24 06:45:21;;;;;;;40.30;17.47;;;0.90;96.70;;;;;;5013032;28;20014;-81
2022/03/24 06:47:47;;;;;;;43.57;19.03;;;1.00;96.20;;;;;;5012635;28;20109;-81
2022/03/24 06:50:13;;;;;;;37.27;19.00;;;1.00;96.30;;;;;;5012676;28;20351;-81
2022/03/24 06:52:43;;;;;;;44.43;18.23;;;1.10;96.30;;;;;;5012203;28;20069;-82
2022/03/24 06:55:10;;;;;;;36.27;17.80;;;1.20;96.20;;;;;;5012040;28;20030;-82
2022/03/24 06:57:37;;;;;;;38.67;19.00;;;1.30;96.20;;;;;;5012320;28;20477;-81
2022/03/24 07:00:07;;;;;;;40.53;17.53;;;1.40;96.10;;;;;;5012674;28;20033;-82
2022/03/24 07:02:33;;;;;;;40.00;19.03;;;1.50;96.00;;;;;;5006196;28;20053;-82
2022/03/24 07:05:00;;;;;;;36.20;17.63;;;1.60;95.70;;;;;;5012247;28;20029;-81
2022/03/24 07:07:27;;;;;;;40.33;17.53;;;1.70;95.60;;;;;;5024226;23;20042;-79
2022/03/24 07:09:53;;;;;;;37.53;17.37;;;1.90;95.30;;;;;;5012027;28;20299;-80
2022/03/24 07:12:22;;;;;;;36.10;17.07;;;2.00;95.10;;;;;;5011921;28;20643;-79
2022/03/24 07:14:48;;;;;;;31.13;15.90;;;2.10;95.00;;;;;;5011938;28;20026;-79
2022/03/24 07:17:14;;;;;;;29.67;15.20;;;2.10;94.80;;;;;;5011869;28;20025;-80
2022/03/24 07:19:40;;;;;;;33.53;15.77;;;2.20;95.00;;;;;;4993527;28;20026;-80
2022/03/24 07:22:06;;;;;;;32.47;17.10;;;2.40;94.90;;;;;;5011104;28;20022;-80
2022/03/24 07:24:32;;;;;;;34.20;16.50;;;2.60;94.70;;;;;;5012229;28;20028;-80
2022/03/24 07:26:58;;;;;;;28.93;14.57;;;2.80;94.50;;;;;;5011701;28;20018;-79
2022/03/24 07:29:24;;;;;;;27.73;14.43;;;2.90;94.00;;;;;;5011487;28;20026;-80
2022/03/24 07:31:50;;;;;;;31.60;14.87;;;3.00;93.60;;;;;;5010180;28;20030;-79
2022/03/24 07:34:16;;;;;;;29.73;15.63;;;3.10;93.20;;;;;;5008584;28;20068;-80
2022/03/24 07:36:43;;;;;;;35.03;16.03;;;3.30;92.80;;;;;;5011402;28;20385;-80
2022/03/24 07:39:09;;;;;;;28.87;14.00;;;3.50;92.20;;;;;;5012000;28;20612;-80
2022/03/24 07:41:36;;;;;;;29.43;14.47;;;3.60;91.90;;;;;;5005337;28;20017;-80
2022/03/24 07:44:01;;;;;;;29.43;14.67;;;3.80;91.50;;;;;;5011512;28;20018;-80
2022/03/24 07:46:27;;;;;;;33.73;15.47;;;3.90;91.30;;;;;;5011198;28;20029;-80
2022/03/24 07:48:53;;;;;;;35.00;15.90;;;4.10;91.00;;;;;;5011746;28;20096;-81
2022/03/24 07:51:19;;;;;;;26.70;15.17;;;4.20;90.60;;;;;;5010997;28;20033;-81
2022/03/24 07:53:48;;;;;;;30.13;15.03;;;4.40;90.30;;;;;;5011536;28;20025;-82
2022/03/24 07:56:19;;;;;;;31.87;15.53;;;4.50;89.60;;;;;;5010982;28;20102;-80
2022/03/24 07:58:45;;;;;;;32.53;16.97;;;4.70;89.50;;;;;;5010212;28;20053;-81
2022/03/24 08:01:11;;;;;;;28.57;15.40;;;4.90;88.30;;;;;;4993270;28;20076;-79
2022/03/24 08:03:37;;;;;;;28.97;17.53;;;5.20;88.00;;;;;;5011504;28;20021;-78
2022/03/24 08:06:03;;;;;;;30.17;16.80;;;5.50;87.80;;;;;;5023518;23;20006;-79
2022/03/24 08:08:30;;;;;;;30.70;15.60;;;5.60;87.90;;;;;;5011253;28;20117;-77
2022/03/24 08:10:57;;;;;;;28.27;16.60;;;5.80;88.70;;;;;;5011411;28;20393;-81
2022/03/24 08:13:23;;;;;;;32.70;17.35;;;6.10;87.60;;;;;;5004257;28;20085;-81
2022/03/24 08:15:50;;;;;;;28.80;16.40;;;6.30;88.00;;;;;;5010963;28;20022;-79
2022/03/24 08:18:17;;;;;;;31.77;16.02;;;6.50;87.60;;;;;;5011130;28;20030;-79
2022/03/24 08:20:46;;;;;;;31.20;15.68;;;6.80;86.70;;;;;;5011279;28;20096;-79
2022/03/24 08:23:13;;;;;;;28.48;16.05;;;7.00;84.70;;;;;;5010723;28;20065;-79
2022/03/24 08:25:41;;;;;;;35.25;17.30;;;7.20;83.00;;;;;;5010976;28;20045;-80
2022/03/24 08:28:08;;;;;;;29.65;16.30;;;7.50;81.30;;;;;;5010968;28;20076;-80
2022/03/24 08:30:33;;;;;;;31.25;17.63;;;7.80;80.90;;;;;;5010914;28;20025;-79
2022/03/24 08:32:59;;;;;;;32.72;17.65;;;8.00;80.70;;;;;;5010703;28;20044;-79
2022/03/24 08:35:25;;;;;;;36.55;17.70;;;8.30;81.30;;;;;;5010779;28;20029;-81
2022/03/24 08:37:51;;;;;;;35.60;17.02;;;8.60;80.70;;;;;;5010182;28;20022;-79
2022/03/24 08:40:17;;;;;;;33.25;17.10;;;8.90;79.50;;;;;;5010378;28;20037;-79
2022/03/24 08:42:43;;;;;;;31.63;16.88;;;9.20;76.00;;;;;;4992592;28;20034;-79
2022/03/24 08:45:11;;;;;;;34.63;16.65;;;9.60;75.60;;;;;;5003418;28;20022;-80
2022/03/24 08:47:38;;;;;;;31.05;15.90;;;10.10;71.50;;;;;;5010837;28;20052;-80
2022/03/24 08:50:06;;;;;;;29.67;15.23;;;10.90;68.60;;;;;;5010780;28;20053;-80
2022/03/24 08:52:33;;;;;;;27.70;14.75;;;11.80;63.90;;;;;;5010915;28;20030;-80
2022/03/24 08:54:58;;;;;;;32.17;15.73;;;12.30;60.50;;;;;;5010354;28;20022;-80
2022/03/24 08:57:28;;;;;;;29.08;14.35;;;12.50;60.40;;;;;;5010509;28;20385;-80
2022/03/24 09:00:01;;;;;;;30.92;15.48;;;12.70;59.80;;;;;;5011168;28;20156;-80
2022/03/24 09:02:27;;;;;;;30.55;15.52;;;13.00;60.10;;;;;;5004457;28;20551;-81
2022/03/24 09:04:53;;;;;;;26.75;15.43;;;13.40;62.10;;;;;;5010854;28;20044;-80
2022/03/24 09:07:19;;;;;;;36.10;16.35;;;14.00;56.70;;;;;;5022907;23;20537;-78
2022/03/24 09:09:44;;;;;;;28.27;13.68;;;14.60;56.60;;;;;;5010805;28;20030;-80
2022/03/24 09:12:12;;;;;;;35.80;15.57;;;14.80;53.40;;;;;;5009935;28;20092;-79
2022/03/24 09:14:39;;;;;;;31.75;15.80;;;15.10;52.20;;;;;;5010871;28;20022;-79
2022/03/24 09:17:05;;;;;;;31.30;15.85;;;15.40;51.80;;;;;;5010865;28;20470;-79
2022/03/24 09:19:33;;;;;;;33.63;16.42;;;15.60;49.60;;;;;;5010467;28;20054;-80
2022/03/24 09:22:05;;;;;;;30.85;16.80;;;15.90;49.10;;;;;;5010104;28;20393;-78
2022/03/24 09:24:31;;;;;;;34.33;17.90;;;16.40;50.10;;;;;;5010518;28;20026;-78
2022/03/24 09:26:57;;;;;;;31.33;18.00;;;17.10;48.90;;;;;;5010463;28;20034;-78
2022/03/24 09:29:23;;;;;;;32.20;17.25;;;17.40;47.30;;;;;;5010426;28;20482;-78
2022/03/24 09:31:50;;;;;;;30.58;18.08;;;17.80;48.70;;;;;;5010465;28;20049;-78
2022/03/24 09:34:16;;;;;;;30.27;16.45;;;18.50;47.10;;;;;;5010802;28;20080;-78
2022/03/24 09:36:42;;;;;;;27.92;16.60;;;19.10;45.70;;;;;;5010272;28;20469;-78
2022/03/24 09:39:09;;;;;;;36.75;17.45;;;19.90;45.20;;;;;;5010489;28;20022;-78
2022/03/24 09:41:36;;;;;;;29.80;16.65;;;20.90;41.30;;;;;;5012363;28;20105;-78
2022/03/24 09:44:04;;;;;;;29.90;16.55;;;21.80;40.20;;;;;;4996161;28;20444;-78
2022/03/24 09:46:31;;;;;;;29.55;17.15;;;22.50;36.70;;;;;;5013526;28;20351;-78
2022/03/24 09:48:57;;;;;;;31.75;17.08;;;23.30;36.50;;;;;;5014097;28;20433;-78
2022/03/24 09:51:25;;;;;;;33.92;16.65;;;24.40;29.90;;;;;;5013484;28;20014;-78
2022/03/24 09:53:51;;;;;;;32.88;18.02;;;24.60;28.00;;;;;;5013894;28;20030;-79
2022/03/24 09:56:18;;;;;;;28.85;15.88;;;25.10;26.60;;;;;;5014051;28;20048;-79
2022/03/24 09:58:44;;;;;;;36.42;18.75;;;26.40;26.00;;;;;;5007289;28;20025;-78
2022/03/24 10:01:13;;;;;;;29.60;17.00;;;25.50;25.60;;;;;;5013716;28;21568;-78
2022/03/24 10:03:39;;;;;;;35.30;17.85;;;26.00;25.20;;;;;;5013695;28;20030;-78
2022/03/24 10:06:07;;;;;;;32.05;16.85;;;27.10;23.90;;;;;;5028482;22;20068;-77
2022/03/24 10:08:34;;;;;;;29.55;16.73;;;26.70;26.50;;;;;;5011839;28;20050;-82
2022/03/24 10:11:06;;;;;;;29.85;16.42;;;27.50;25.00;;;;;;5013487;28;20129;-82
2022/03/24 10:13:45;;;;;;;28.40;15.93;;;28.00;24.90;;;;;;5013608;28;20030;-82
2022/03/24 10:16:33;;;;;;;34.95;17.23;;;28.90;22.50;;;;;;5008541;28;20022;-83
2022/03/24 10:19:19;;;;;;;26.63;16.17;;;29.90;23.50;;;;;;4998243;28;20109;-83
2022/03/24 10:21:49;;;;;;;24.50;16.15;;;30.30;24.30;;;;;;5008813;28;20406;-83
2022/03/24 10:24:22;;;;;;;25.83;15.90;;;30.00;22.70;;;;;;5013764;28;20018;-83
2022/03/24 10:27:00;;;;;;;28.90;15.80;;;29.50;22.70;;;;;;5013161;28;20112;-83
2022/03/24 10:29:27;;;;;;;28.00;15.70;;;30.60;22.00;;;;;;5013184;28;20038;-83
2022/03/24 10:31:57;;;;;;;29.67;16.98;;;30.70;22.70;;;;;;5013249;28;20041;-83
2022/03/24 10:34:34;;;;;;;28.55;15.70;;;30.30;21.20;;;;;;5012897;28;20025;-83
2022/03/24 10:37:26;;;;;;;32.38;16.90;;;29.50;22.70;;;;;;5006724;28;20022;-83
2022/03/24 10:40:03;;;;;;;28.73;15.13;;;30.30;23.10;;;;;;5005613;28;20117;-83
2022/03/24 10:42:32;;;;;;;27.63;16.27;;;31.70;22.70;;;;;;5007384;28;20465;-83
2022/03/24 10:45:23;;;;;;;25.30;14.10;;;32.40;20.50;;;;;;4995202;28;20101;-83
2022/03/24 10:48:02;;;;;;;23.00;13.65;;;31.40;22.30;;;;;;4999805;28;20584;-83
2022/03/24 10:50:41;;;;;;;22.60;12.43;;;32.00;20.30;;;;;;5011946;28;20022;-83
2022/03/24 10:53:08;;;;;;;19.48;12.05;;;31.30;20.90;;;;;;5010913;28;20049;-83
2022/03/24 10:55:44;;;;;;;27.35;14.27;;;30.80;19.50;;;;;;5011518;28;20064;-83
2022/03/24 10:58:17;;;;;;;24.88;13.95;;;31.60;19.00;;;;;;5011525;28;20113;-83
2022/03/24 11:00:45;;;;;;;24.50;12.98;;;31.80;19.50;;;;;;5012104;28;20025;-83
2022/03/24 11:03:11;;;;;;;21.23;11.95;;;31.30;21.80;;;;;;5012608;28;20505;-83
2022/03/24 11:05:37;;;;;;;15.02;9.02;;;32.30;22.70;;;;;;5012346;28;20038;-84
2022/03/24 11:08:08;;;;;;;13.02;7.97;;;33.10;18.70;;;;;;5024739;22;20050;-79
2022/03/24 11:10:47;;;;;;;13.20;7.95;;;32.30;17.00;;;;;;5006279;28;20034;-78
2022/03/24 11:13:33;;;;;;;11.13;7.38;;;32.30;18.00;;;;;;5005609;28;20018;-79
2022/03/24 11:15:59;;;;;;;12.52;7.72;;;32.40;15.40;;;;;;5005631;28;20018;-78
2022/03/24 11:18:25;;;;;;;11.43;7.22;;;30.00;15.40;;;;;;5011053;28;20089;-78
2022/03/24 11:20:54;;;;;;;11.68;7.82;;;30.50;18.50;;;;;;4993181;28;20080;-78
2022/03/24 11:23:23;;;;;;;11.75;9.05;;;31.70;18.20;;;;;;5011207;28;20040;-78
2022/03/24 11:25:53;;;;;;;15.10;8.98;;;30.90;16.20;;;;;;5010891;28;20025;-79
2022/03/24 11:28:21;;;;;;;16.95;8.55;;;31.20;17.00;;;;;;5010822;28;20048;-78
2022/03/24 11:30:47;;;;;;;15.45;9.02;;;30.30;17.10;;;;;;5010932;28;20022;-78
2022/03/24 11:33:13;;;;;;;12.90;8.38;;;29.70;18.50;;;;;;5011589;28;20105;-78
2022/03/24 11:35:40;;;;;;;16.27;9.02;;;30.60;16.50;;;;;;5010551;28;20032;-78
2022/03/24 11:38:06;;;;;;;13.45;9.25;;;30.50;16.80;;;;;;5010569;28;20018;-79
2022/03/24 11:40:33;;;;;;;13.45;7.70;;;32.00;18.10;;;;;;5011457;28;20018;-78
2022/03/24 11:43:14;;;;;;;12.80;8.45;;;32.60;16.40;;;;;;5010702;28;20666;-78
2022/03/24 11:45:49;;;;;;;13.68;8.75;;;32.00;15.70;;;;;;5010462;28;20042;-78
2022/03/24 11:48:16;;;;;;;12.68;8.45;;;32.50;16.50;;;;;;5010457;28;20026;-78
2022/03/24 11:50:48;;;;;;;12.75;9.23;;;33.30;15.80;;;;;;5010528;28;20026;-78
2022/03/24 11:53:29;;;;;;;13.95;8.40;;;34.10;15.00;;;;;;5005397;28;20014;-78
2022/03/24 11:56:03;;;;;;;12.70;9.10;;;34.90;15.80;;;;;;5005115;28;20034;-79
2022/03/24 11:58:36;;;;;;;13.45;8.88;;;35.90;15.00;;;;;;5011551;28;20025;-79
2022/03/24 12:01:20;;;;;;;10.52;7.90;;;34.70;16.00;;;;;;5011366;28;20052;-79
2022/03/24 12:03:48;;;;;;;13.43;8.65;;;35.00;15.40;;;;;;5010819;28;20409;-79
2022/03/24 12:06:16;;;;;;;15.27;9.13;;;35.30;15.50;;;;;;5024808;22;20022;-83
2022/03/24 12:08:59;;;;;;;12.55;9.30;;;36.50;15.20;;;;;;4984070;28;20042;-84
2022/03/24 12:11:31;;;;;;;15.10;10.00;;;36.10;14.20;;;;;;5005279;28;20037;-83
2022/03/24 12:14:04;;;;;;;12.82;9.93;;;34.70;14.90;;;;;;5011529;28;20026;-84
2022/03/24 12:16:31;;;;;;;16.80;9.95;;;35.80;15.20;;;;;;5011045;28;20028;-84
2022/03/24 12:18:57;;;;;;;14.38;9.98;;;34.40;14.90;;;;;;5011286;28;20026;-84
2022/03/24 12:21:29;;;;;;;16.83;11.68;;;34.80;16.10;;;;;;5010752;28;20029;-84
2022/03/24 12:24:09;;;;;;;19.77;11.85;;;34.20;15.30;;;;;;5011090;28;20478;-84
2022/03/24 12:26:59;;;;;;;18.15;11.40;;;33.80;15.50;;;;;;5011208;28;20014;-84
2022/03/24 12:29:27;;;;;;;17.75;11.77;;;32.10;14.80;;;;;;5011152;28;20033;-84
2022/03/24 12:32:07;;;;;;;16.35;10.90;;;33.10;15.40;;;;;;5011320;28;20057;-84
2022/03/24 12:34:39;;;;;;;17.52;10.43;;;34.10;16.40;;;;;;5011027;28;20041;-83
2022/03/24 12:37:30;;;;;;;17.83;11.25;;;35.70;15.50;;;;;;5010736;28;20022;-84
2022/03/24 12:40:11;;;;;;;15.52;11.15;;;35.10;15.50;;;;;;5006181;28;20030;-84
2022/03/24 12:42:45;;;;;;;15.05;10.60;;;35.60;15.40;;;;;;5006141;28;20095;-84